PABI/DJN METAR and TAF weather

Enter ICAO airport designator
Station Type Date Time Source
PABI METAR 2019/06/26 05:53 UTC NOAA

PABI 260553Z AUTO 27003KT 10SM FEW070 BKN110 21/06 A3005 RMK AO2 SLP172 T02060061 10228 20206 53008 TSNO


Station Type Date Time Source
PABI Decoded METAR 2019/06/26 05:53 UTC NOAA

ALLEN ARMY AIRFIELD, AK, United States (PABI) 64-00N 145-43W 391M
Jun 26, 2019 - 01:53 AM EDT / 2019.06.26 0553 UTC
Wind: from the W (270 degrees) at 3 MPH (3 KT):0
Visibility: 10 mile(s):0
Sky conditions: mostly cloudy
Temperature: 69.1 F (20.6 C)
Dew Point: 43.0 F (6.1 C)
Relative Humidity: 38%
Pressure (altimeter): 30.05 in. Hg (1017 hPa)
Pressure tendency: 0.02 inches (0.8 hPa) higher than three hours ago
ob: PABI 260553Z AUTO 27003KT 10SM FEW070 BKN110 21/06 A3005 RMK AO2 SLP172 T02060061 10228 20206 53008 TSNO
cycle: 6

Station Type Date Time Source
PABI TAF 2019/06/25 22:10 UTC NOAA

TAF PABI 252200Z 2522/2704 VRB06KT 9999 SCT060 BKN180 QNH3001INS
TEMPO 2523/2604 32012KT TX22/2602Z TN12/2613Z

Example: see airport list